createdAt,value
2019-01-25T00:00:18.399Z,-4.15
2019-01-25T00:01:18.387Z,-4.10
2019-01-25T00:02:18.385Z,-4.14
2019-01-25T00:03:18.371Z,-4.15
2019-01-25T00:04:18.362Z,-4.17
2019-01-25T00:05:18.349Z,-4.17
2019-01-25T00:06:18.339Z,-4.11
2019-01-25T00:07:18.327Z,-4.14
2019-01-25T00:08:18.320Z,-4.12
2019-01-25T00:09:18.307Z,-4.10
2019-01-25T00:10:18.301Z,-4.14
2019-01-25T00:11:18.286Z,-4.12
2019-01-25T00:12:18.275Z,-4.17
2019-01-25T00:13:18.268Z,-4.17
2019-01-25T00:14:18.255Z,-4.17
2019-01-25T00:15:18.248Z,-4.12
2019-01-25T00:16:18.237Z,-4.15
2019-01-25T00:17:18.224Z,-4.15
2019-01-25T00:18:18.212Z,-4.12
2019-01-25T00:19:18.202Z,-4.11
2019-01-25T00:20:18.195Z,-4.03
2019-01-25T00:21:18.181Z,-4.14
2019-01-25T00:22:18.173Z,-4.17
2019-01-25T00:23:18.162Z,-4.17
2019-01-25T00:24:18.150Z,-4.12
2019-01-25T00:25:18.141Z,-4.10
2019-01-25T00:26:18.132Z,-4.20
2019-01-25T00:27:18.119Z,-4.07
2019-01-25T00:28:18.114Z,-4.12
2019-01-25T00:29:18.097Z,-4.12
2019-01-25T00:30:18.086Z,-4.15
2019-01-25T00:31:18.075Z,-4.15
2019-01-25T00:32:18.067Z,-4.04
2019-01-25T00:33:18.056Z,-4.07
2019-01-25T00:34:18.053Z,-4.20
2019-01-25T00:35:18.034Z,-4.18
2019-01-25T00:36:18.033Z,-4.14
2019-01-25T00:37:18.012Z,-4.14
2019-01-25T00:38:18.004Z,-4.14
2019-01-25T00:39:17.994Z,-4.15
2019-01-25T00:40:17.982Z,-4.12
2019-01-25T00:41:17.968Z,-4.18
2019-01-25T00:42:17.955Z,-4.10
2019-01-25T00:43:17.946Z,-4.11
2019-01-25T00:44:17.938Z,-4.17
2019-01-25T00:45:17.927Z,-4.11
2019-01-25T00:46:17.920Z,-4.14
2019-01-25T00:47:17.908Z,-4.14
2019-01-25T00:48:17.897Z,-4.11
2019-01-25T00:49:17.888Z,-4.11
2019-01-25T00:50:17.875Z,-4.12
2019-01-25T00:51:17.867Z,-4.17
2019-01-25T00:52:17.855Z,-4.11
2019-01-25T00:53:17.850Z,-4.06
2019-01-25T00:54:17.838Z,-4.12
2019-01-25T00:55:17.829Z,-4.12
2019-01-25T00:56:17.814Z,-4.12
2019-01-25T00:57:17.805Z,-4.03
2019-01-25T00:58:17.793Z,-4.17
2019-01-25T00:59:17.781Z,-4.10
2019-01-25T01:00:17.771Z,-4.11
2019-01-25T01:01:17.763Z,-4.12
2019-01-25T01:02:17.753Z,-4.14
2019-01-25T01:03:17.743Z,-4.14
2019-01-25T01:04:17.734Z,-4.17
2019-01-25T01:05:17.720Z,-4.10
2019-01-25T01:06:17.712Z,-4.12
2019-01-25T01:07:17.699Z,-4.11
2019-01-25T01:08:17.690Z,-4.11
2019-01-25T01:09:17.681Z,-4.11
2019-01-25T01:10:17.668Z,-4.18
2019-01-25T01:11:17.656Z,-4.12
2019-01-25T01:12:17.646Z,-4.18
2019-01-25T01:13:17.634Z,-4.11
2019-01-25T01:14:17.623Z,-4.17
2019-01-25T01:15:17.631Z,-4.10
2019-01-25T01:16:17.603Z,-4.07
2019-01-25T01:17:17.593Z,-4.11
2019-01-25T01:18:17.582Z,-4.12
2019-01-25T01:19:17.573Z,-4.10
2019-01-25T01:20:17.562Z,-4.15
2019-01-25T01:21:17.550Z,-4.14
2019-01-25T01:22:17.544Z,-4.14
2019-01-25T01:23:17.530Z,-4.10
2019-01-25T01:24:17.524Z,-4.17
2019-01-25T01:25:17.508Z,-4.12
2019-01-25T01:26:17.500Z,-4.11
2019-01-25T01:27:17.492Z,-4.17
2019-01-25T01:28:17.477Z,-4.14
2019-01-25T01:29:17.466Z,-4.20
2019-01-25T01:30:17.458Z,-4.17
2019-01-25T01:31:17.450Z,-4.14
2019-01-25T01:32:17.437Z,-4.14
2019-01-25T01:33:17.426Z,-4.12
2019-01-25T01:34:17.422Z,-4.15
2019-01-25T01:35:17.403Z,-4.04
2019-01-25T01:36:17.399Z,-4.15
2019-01-25T01:37:17.384Z,-4.11
2019-01-25T01:38:17.373Z,-4.11
2019-01-25T01:39:17.362Z,-4.04
2019-01-25T01:40:21.791Z,-4.06
2019-01-25T01:41:18.341Z,-4.11
2019-01-25T01:42:17.332Z,-4.07
2019-01-25T01:43:17.319Z,-4.07
2019-01-25T01:44:17.313Z,-4.04
2019-01-25T01:45:17.303Z,-4.07
2019-01-25T01:46:17.290Z,-4.04
2019-01-25T01:47:17.458Z,-4.18
2019-01-25T01:48:17.269Z,-4.04
2019-01-25T01:49:17.256Z,-4.03
2019-01-25T01:50:17.247Z,-4.04
2019-01-25T01:51:17.242Z,-4.11
2019-01-25T01:52:17.225Z,-4.04
2019-01-25T01:53:17.219Z,-4.00
2019-01-25T01:54:17.203Z,-4.00
2019-01-25T01:55:17.195Z,-4.06
2019-01-25T01:56:17.184Z,-4.00
2019-01-25T01:57:17.172Z,-4.01
2019-01-25T01:58:17.165Z,-4.03
2019-01-25T01:59:17.152Z,-3.97
2019-01-25T02:00:17.140Z,-3.97
2019-01-25T02:01:17.132Z,-3.99
2019-01-25T02:02:17.119Z,-4.03
2019-01-25T02:03:17.109Z,-4.07
2019-01-25T02:04:17.158Z,-4.04
2019-01-25T02:05:17.090Z,-4.07
2019-01-25T02:06:17.077Z,-4.01
2019-01-25T02:07:17.069Z,-4.01
2019-01-25T02:08:17.056Z,-4.01
2019-01-25T02:09:17.042Z,-3.99
2019-01-25T02:10:17.034Z,-4.04
2019-01-25T02:11:17.027Z,-4.07
2019-01-25T02:12:17.015Z,-4.04
2019-01-25T02:13:17.008Z,-3.99
2019-01-25T02:14:16.993Z,-3.99
2019-01-25T02:15:16.982Z,-4.00
2019-01-25T02:16:16.974Z,-4.01
2019-01-25T02:17:16.964Z,-4.04
2019-01-25T02:18:16.953Z,-4.01
2019-01-25T02:19:16.945Z,-4.00
2019-01-25T02:20:16.934Z,-4.03
2019-01-25T02:21:16.923Z,-4.00
2019-01-25T02:22:16.916Z,-4.00
2019-01-25T02:23:16.899Z,-3.99
2019-01-25T02:24:16.888Z,-3.97
2019-01-25T02:25:16.882Z,-3.99
2019-01-25T02:26:16.897Z,-4.10
2019-01-25T02:27:16.857Z,-3.94
2019-01-25T02:28:16.849Z,-3.97
2019-01-25T02:29:16.836Z,-3.96
2019-01-25T02:30:16.826Z,-4.04
2019-01-25T02:31:16.814Z,-3.97
2019-01-25T02:32:16.804Z,-4.00
2019-01-25T02:33:16.793Z,-3.97
2019-01-25T02:34:16.782Z,-4.01
2019-01-25T02:35:16.770Z,-4.01
2019-01-25T02:36:16.764Z,-4.01
2019-01-25T02:37:16.770Z,-3.97
2019-01-25T02:38:16.741Z,-3.97
2019-01-25T02:39:16.731Z,-3.97
2019-01-25T02:40:16.723Z,-3.94
2019-01-25T02:41:16.709Z,-4.04
2019-01-25T02:42:16.699Z,-3.97
2019-01-25T02:43:16.689Z,-4.04
2019-01-25T02:44:16.678Z,-4.01
2019-01-25T02:45:16.664Z,-4.04
2019-01-25T02:46:16.653Z,-4.00
2019-01-25T02:47:16.648Z,-4.01
2019-01-25T02:48:16.638Z,-4.03
2019-01-25T02:49:16.625Z,-4.04
2019-01-25T02:50:16.616Z,-4.06
2019-01-25T02:51:16.603Z,-4.00
2019-01-25T02:52:16.593Z,-4.06
2019-01-25T02:53:16.585Z,-4.03
2019-01-25T02:54:16.573Z,-4.07
2019-01-25T02:55:16.564Z,-4.11
2019-01-25T02:56:16.557Z,-4.12
2019-01-25T02:57:16.540Z,-4.10
2019-01-25T02:58:16.533Z,-4.03
2019-01-25T02:59:16.522Z,-4.10
2019-01-25T03:00:16.513Z,-4.03
2019-01-25T03:01:16.504Z,-4.04
2019-01-25T03:02:16.491Z,-4.03
2019-01-25T03:03:16.476Z,-4.06
2019-01-25T03:04:16.470Z,-4.04
2019-01-25T03:05:16.458Z,-4.04
2019-01-25T03:06:16.451Z,-3.97
2019-01-25T03:07:16.435Z,-4.04
2019-01-25T03:08:16.427Z,-3.96
2019-01-25T03:09:16.416Z,-3.99
2019-01-25T03:10:16.413Z,-4.01
2019-01-25T03:11:16.402Z,-4.00
2019-01-25T03:12:16.387Z,-3.96
2019-01-25T03:13:16.374Z,-4.00
2019-01-25T03:14:16.365Z,-4.04
2019-01-25T03:15:16.352Z,-4.04
2019-01-25T03:16:16.341Z,-4.07
2019-01-25T03:17:16.331Z,-4.00
2019-01-25T03:18:16.322Z,-4.03
2019-01-25T03:19:16.322Z,-4.01
2019-01-25T03:20:16.299Z,-4.06
2019-01-25T03:21:16.293Z,-4.03
2019-01-25T03:22:16.279Z,-4.03
2019-01-25T03:23:16.276Z,-3.99
2019-01-25T03:24:16.259Z,-3.99
2019-01-25T03:25:16.250Z,-4.03
2019-01-25T03:26:16.235Z,-3.99
2019-01-25T03:27:16.227Z,-4.01
2019-01-25T03:28:16.215Z,-3.99
2019-01-25T03:29:16.207Z,-3.97
2019-01-25T03:30:16.208Z,-4.03
2019-01-25T03:31:16.187Z,-4.01
2019-01-25T03:32:16.176Z,-4.03
2019-01-25T03:33:16.163Z,-3.97
2019-01-25T03:34:16.154Z,-3.94
2019-01-25T03:35:16.143Z,-3.94
2019-01-25T03:36:16.136Z,-3.93
2019-01-25T03:37:16.121Z,-3.94
2019-01-25T03:38:16.116Z,-4.01
2019-01-25T03:39:16.101Z,-3.99
2019-01-25T03:40:16.089Z,-4.01
2019-01-25T03:41:16.083Z,-3.93
2019-01-25T03:42:16.069Z,-3.99
2019-01-25T03:43:16.063Z,-3.91
2019-01-25T03:44:16.056Z,-3.99
2019-01-25T03:45:16.037Z,-3.97
2019-01-25T03:46:16.028Z,-3.94
2019-01-25T03:47:16.017Z,-3.94
2019-01-25T03:48:16.007Z,-4.00
2019-01-25T03:49:16.006Z,-4.07
2019-01-25T03:50:15.985Z,-4.06
2019-01-25T03:51:15.978Z,-4.00
2019-01-25T03:52:15.964Z,-4.07
2019-01-25T03:53:15.952Z,-3.99
2019-01-25T03:54:15.945Z,-3.96
2019-01-25T03:55:15.934Z,-4.03
2019-01-25T03:56:15.922Z,-4.00
2019-01-25T03:57:15.910Z,-4.03
2019-01-25T03:58:15.906Z,-4.01
2019-01-25T03:59:15.892Z,-4.07
2019-01-25T04:00:15.882Z,-4.07
2019-01-25T04:01:15.875Z,-4.04
2019-01-25T04:02:15.859Z,-4.03
2019-01-25T04:03:15.853Z,-4.01
2019-01-25T04:04:15.844Z,-4.00
2019-01-25T04:05:15.833Z,-4.06
2019-01-25T04:06:15.818Z,-4.00
2019-01-25T04:07:15.811Z,-4.04
2019-01-25T04:08:15.795Z,-4.04
2019-01-25T04:09:15.795Z,-3.99
2019-01-25T04:10:15.779Z,-4.06
2019-01-25T04:11:15.763Z,-4.04
2019-01-25T04:12:15.756Z,-4.07
2019-01-25T04:13:15.747Z,-4.03
2019-01-25T04:14:15.734Z,-4.03
2019-01-25T04:15:15.729Z,-4.06
2019-01-25T04:16:15.721Z,-4.04
2019-01-25T04:17:15.706Z,-4.06
2019-01-25T04:18:15.694Z,-4.06
2019-01-25T04:19:15.684Z,-4.06
2019-01-25T04:20:15.673Z,-4.03
2019-01-25T04:21:15.682Z,-4.03
2019-01-25T04:22:15.655Z,-4.04
2019-01-25T04:23:15.638Z,-4.07
2019-01-25T04:24:15.631Z,-4.12
2019-01-25T04:25:15.621Z,-4.10
2019-01-25T04:26:15.610Z,-4.07
2019-01-25T04:27:15.599Z,-4.04
2019-01-25T04:28:15.592Z,-4.14
2019-01-25T04:29:15.581Z,-4.03
2019-01-25T04:30:15.573Z,-4.03
2019-01-25T04:31:15.559Z,-4.01
2019-01-25T04:32:15.546Z,-4.01
2019-01-25T04:33:15.539Z,-4.10
2019-01-25T04:34:15.525Z,-4.10
2019-01-25T04:35:15.526Z,-4.06
2019-01-25T04:36:15.505Z,-4.03
2019-01-25T04:37:15.495Z,-4.03
2019-01-25T04:38:15.484Z,-4.03
2019-01-25T04:39:15.475Z,-4.06
2019-01-25T04:40:15.462Z,-4.06
2019-01-25T04:41:15.454Z,-4.04
2019-01-25T04:42:15.444Z,-4.03
2019-01-25T04:43:15.435Z,-4.00
2019-01-25T04:44:15.421Z,-4.01
2019-01-25T04:45:15.412Z,-4.03
2019-01-25T04:46:15.399Z,-4.03
2019-01-25T04:47:15.392Z,-4.03
2019-01-25T04:48:15.381Z,-4.00
2019-01-25T04:49:15.367Z,-4.03
2019-01-25T04:50:15.356Z,-4.03
2019-01-25T04:51:15.351Z,-4.01
2019-01-25T04:52:15.338Z,-4.07
2019-01-25T04:53:15.325Z,-4.06
2019-01-25T04:54:15.322Z,-4.03
2019-01-25T04:55:15.302Z,-4.00
2019-01-25T04:56:15.298Z,-3.99
2019-01-25T04:57:15.287Z,-4.07
2019-01-25T04:58:15.279Z,-4.01
2019-01-25T04:59:15.265Z,-4.07
2019-01-25T05:00:15.251Z,-4.00
2019-01-25T05:01:15.243Z,-4.00
2019-01-25T05:02:15.237Z,-4.01
2019-01-25T05:03:15.218Z,-4.01
2019-01-25T05:04:15.210Z,-3.99
2019-01-25T05:05:15.201Z,-4.01
2019-01-25T05:06:15.191Z,-3.99
2019-01-25T05:07:15.182Z,-3.97
2019-01-25T05:08:16.149Z,-4.00
2019-01-25T05:09:15.161Z,-3.94
2019-01-25T05:10:15.150Z,-4.03
2019-01-25T05:11:20.002Z,-3.99
2019-01-25T05:12:16.128Z,-4.04
2019-01-25T05:13:15.120Z,-3.99
2019-01-25T05:14:15.108Z,-4.00
2019-01-25T05:15:15.095Z,-3.97
2019-01-25T05:16:15.085Z,-3.96
2019-01-25T05:17:15.079Z,-4.00
2019-01-25T05:18:15.072Z,-4.00
2019-01-25T05:19:15.052Z,-4.03
2019-01-25T05:20:15.049Z,-4.00
2019-01-25T05:21:15.036Z,-3.99
2019-01-25T05:22:15.033Z,-3.99
2019-01-25T05:23:15.016Z,-3.96
2019-01-25T05:24:15.002Z,-4.01
2019-01-25T05:25:14.991Z,-4.03
2019-01-25T05:26:14.993Z,-4.04
2019-01-25T05:27:14.978Z,-4.06
2019-01-25T05:28:14.964Z,-4.10
2019-01-25T05:29:14.953Z,-4.04
2019-01-25T05:30:14.949Z,-4.07
2019-01-25T05:31:14.928Z,-4.04
2019-01-25T05:32:14.920Z,-4.06
2019-01-25T05:33:14.907Z,-4.03
2019-01-25T05:34:14.898Z,-4.01
2019-01-25T05:35:14.889Z,-4.10
2019-01-25T05:36:14.878Z,-4.06
2019-01-25T05:37:14.865Z,-4.04
2019-01-25T05:38:14.854Z,-4.01
2019-01-25T05:39:14.843Z,-4.01
2019-01-25T05:40:14.833Z,-4.06
2019-01-25T05:41:14.826Z,-4.03
2019-01-25T05:42:14.813Z,-4.07
2019-01-25T05:43:14.802Z,-4.00
2019-01-25T05:44:14.796Z,-4.00
2019-01-25T05:45:14.780Z,-4.04
2019-01-25T05:46:14.773Z,-4.01
2019-01-25T05:47:14.765Z,-3.96
2019-01-25T05:48:14.753Z,-4.01
2019-01-25T05:49:14.737Z,-3.96
2019-01-25T05:50:14.734Z,-4.03
2019-01-25T05:51:14.718Z,-3.97
2019-01-25T05:52:14.709Z,-3.94
2019-01-25T05:53:14.698Z,-3.99
2019-01-25T05:54:14.693Z,-3.94
2019-01-25T05:55:14.679Z,-3.97
2019-01-25T05:56:14.666Z,-3.96
2019-01-25T05:57:14.654Z,-4.03
2019-01-25T05:58:14.644Z,-3.91
2019-01-25T05:59:14.633Z,-4.01
2019-01-25T06:00:14.629Z,-3.96
2019-01-25T06:01:14.616Z,-3.99
2019-01-25T06:02:14.606Z,-4.03
2019-01-25T06:03:14.592Z,-3.97
2019-01-25T06:04:14.576Z,-3.90
2019-01-25T06:05:14.567Z,-3.97
2019-01-25T06:06:14.553Z,-3.94
2019-01-25T06:07:14.552Z,-3.93
2019-01-25T06:08:14.537Z,-3.90
2019-01-25T06:09:14.531Z,-3.91
2019-01-25T06:10:14.516Z,-3.90
2019-01-25T06:11:14.504Z,-3.90
2019-01-25T06:12:14.496Z,-3.94
2019-01-25T06:13:14.488Z,-3.97
2019-01-25T06:14:14.475Z,-3.97
2019-01-25T06:15:14.459Z,-4.06
2019-01-25T06:16:14.454Z,-3.99
2019-01-25T06:17:14.447Z,-3.97
2019-01-25T06:18:14.432Z,-3.97
2019-01-25T06:19:14.421Z,-4.00
2019-01-25T06:20:14.420Z,-3.94
2019-01-25T06:21:14.404Z,-3.94
2019-01-25T06:22:14.392Z,-3.96
2019-01-25T06:23:14.378Z,-3.94
2019-01-25T06:24:14.370Z,-3.94
2019-01-25T06:25:14.363Z,-3.99
2019-01-25T06:26:14.352Z,-3.97
2019-01-25T06:27:14.339Z,-3.97
2019-01-25T06:28:14.326Z,-3.91
2019-01-25T06:29:14.320Z,-4.00
2019-01-25T06:30:14.308Z,-3.96
2019-01-25T06:31:14.298Z,-4.03
2019-01-25T06:32:14.288Z,-3.99
2019-01-25T06:33:14.299Z,-4.01
2019-01-25T06:34:14.266Z,-3.99
2019-01-25T06:35:14.324Z,-4.00
2019-01-25T06:36:14.247Z,-3.93
2019-01-25T06:37:14.231Z,-3.93
2019-01-25T06:38:14.226Z,-3.97
2019-01-25T06:39:14.210Z,-4.00
2019-01-25T06:40:14.200Z,-4.01
2019-01-25T06:41:14.189Z,-4.00
2019-01-25T06:42:14.184Z,-3.97
2019-01-25T06:43:14.166Z,-3.99
2019-01-25T06:44:14.161Z,-3.94
2019-01-25T06:45:14.149Z,-4.00
2019-01-25T06:46:14.139Z,-4.04
2019-01-25T06:47:14.128Z,-3.91
2019-01-25T06:48:14.119Z,-3.88
2019-01-25T06:49:14.106Z,-3.90
2019-01-25T06:50:14.095Z,-3.88
2019-01-25T06:51:14.086Z,-3.90
2019-01-25T06:52:14.080Z,-3.86
2019-01-25T06:53:14.064Z,-3.83
2019-01-25T06:54:14.058Z,-3.83
2019-01-25T06:55:14.047Z,-3.83
2019-01-25T06:56:14.033Z,-3.85
2019-01-25T06:57:14.024Z,-3.90
2019-01-25T06:58:14.015Z,-3.90
2019-01-25T06:59:14.002Z,-3.88
2019-01-25T07:00:13.990Z,-3.88
2019-01-25T07:01:13.983Z,-3.86
2019-01-25T07:02:13.971Z,-3.83
2019-01-25T07:03:13.960Z,-3.85
2019-01-25T07:04:13.953Z,-3.88
2019-01-25T07:05:13.940Z,-3.94
2019-01-25T07:06:13.927Z,-3.88
2019-01-25T07:07:13.919Z,-3.91
2019-01-25T07:08:13.906Z,-3.86
2019-01-25T07:09:13.894Z,-3.90
2019-01-25T07:10:13.885Z,-3.90
2019-01-25T07:11:13.876Z,-3.97
2019-01-25T07:12:13.868Z,-4.01
2019-01-25T07:13:13.901Z,-3.94
2019-01-25T07:14:13.849Z,-3.96
2019-01-25T07:15:13.838Z,-3.97
2019-01-25T07:16:13.827Z,-4.01
2019-01-25T07:17:13.818Z,-3.97
2019-01-25T07:18:13.803Z,-3.91
2019-01-25T07:19:13.796Z,-3.99
2019-01-25T07:20:13.782Z,-3.94
2019-01-25T07:21:13.770Z,-3.96
2019-01-25T07:22:13.760Z,-3.99
2019-01-25T07:23:13.753Z,-4.01
2019-01-25T07:24:13.736Z,-3.99
2019-01-25T07:25:13.727Z,-4.01
2019-01-25T07:26:13.718Z,-3.94
2019-01-25T07:27:13.708Z,-3.96
2019-01-25T07:28:13.702Z,-4.00
2019-01-25T07:29:13.693Z,-4.01
2019-01-25T07:30:13.686Z,-3.94
2019-01-25T07:31:13.677Z,-3.91
2019-01-25T07:32:13.675Z,-3.99
2019-01-25T07:33:13.678Z,-3.91
2019-01-25T07:34:13.713Z,-3.94
2019-01-25T07:35:13.625Z,-3.99
2019-01-25T07:36:13.614Z,-4.01
2019-01-25T07:37:13.606Z,-3.93
2019-01-25T07:38:13.592Z,-3.94
2019-01-25T07:39:13.588Z,-3.96
2019-01-25T07:40:13.573Z,-3.93
2019-01-25T07:41:13.562Z,-3.91
2019-01-25T07:42:13.551Z,-3.91
2019-01-25T07:43:13.553Z,-3.94
2019-01-25T07:44:13.527Z,-3.94
2019-01-25T07:45:13.545Z,-3.91
2019-01-25T07:46:13.512Z,-3.86
2019-01-25T07:47:13.502Z,-3.94
2019-01-25T07:48:13.505Z,-3.93
2019-01-25T07:49:13.476Z,-3.94
2019-01-25T07:50:13.467Z,-3.90
2019-01-25T07:51:13.456Z,-3.96
2019-01-25T07:52:13.450Z,-3.90
2019-01-25T07:53:13.439Z,-3.91
2019-01-25T07:54:13.423Z,-3.88
2019-01-25T07:55:13.417Z,-3.88
2019-01-25T07:56:13.410Z,-3.90
2019-01-25T07:57:13.395Z,-3.86
2019-01-25T07:58:13.394Z,-3.86
2019-01-25T07:59:13.373Z,-3.91
2019-01-25T08:00:13.361Z,-3.86
2019-01-25T08:01:13.351Z,-3.88
2019-01-25T08:02:13.359Z,-3.91
2019-01-25T08:03:13.334Z,-3.81
2019-01-25T08:04:13.317Z,-3.85
2019-01-25T08:05:13.313Z,-3.93
2019-01-25T08:06:13.325Z,-3.85
2019-01-25T08:07:13.292Z,-3.86
2019-01-25T08:08:13.273Z,-3.88
2019-01-25T08:09:13.293Z,-3.85
2019-01-25T08:10:13.261Z,-3.78
2019-01-25T08:11:13.250Z,-3.82
2019-01-25T08:12:13.268Z,-3.83
2019-01-25T08:13:13.241Z,-3.75
2019-01-25T08:14:13.279Z,-3.69
2019-01-25T08:15:13.242Z,-3.69
2019-01-25T08:16:13.202Z,-3.76
2019-01-25T08:17:13.181Z,-3.75
2019-01-25T08:18:13.169Z,-3.69
2019-01-25T08:19:13.160Z,-3.78
2019-01-25T08:20:13.169Z,-3.79
2019-01-25T08:21:13.145Z,-3.72
2019-01-25T08:22:13.173Z,-3.71
2019-01-25T08:23:13.112Z,-3.82
2019-01-25T08:24:13.133Z,-3.72
2019-01-25T08:25:13.096Z,-3.82
2019-01-25T08:26:13.085Z,-3.71
2019-01-25T08:27:13.077Z,-3.76
2019-01-25T08:28:13.065Z,-3.75
2019-01-25T08:29:13.058Z,-3.76
2019-01-25T08:30:13.106Z,-3.82
2019-01-25T08:31:13.036Z,-3.79
2019-01-25T08:32:13.023Z,-3.82
2019-01-25T08:33:13.015Z,-3.79
2019-01-25T08:34:13.001Z,-3.72
2019-01-25T08:35:13.020Z,-3.78
2019-01-25T08:36:12.980Z,-3.69
2019-01-25T08:37:12.994Z,-3.75
2019-01-25T08:38:12.968Z,-3.81
2019-01-25T08:39:12.974Z,-3.75
2019-01-25T08:40:12.977Z,-3.72
2019-01-25T08:41:12.926Z,-3.78
2019-01-25T08:42:15.673Z,-3.72
2019-01-25T08:43:12.906Z,-3.72
2019-01-25T08:44:12.909Z,-3.72
2019-01-25T08:45:12.911Z,-3.86
2019-01-25T08:46:12.928Z,-3.76
2019-01-25T08:47:12.933Z,-3.83
2019-01-25T08:48:12.854Z,-3.82
2019-01-25T08:49:12.866Z,-3.79
2019-01-25T08:50:12.835Z,-3.75
2019-01-25T08:51:12.822Z,-3.75
2019-01-25T08:52:13.052Z,-3.64
2019-01-25T08:53:12.844Z,-3.64
2019-01-25T08:54:14.220Z,-3.75
2019-01-25T08:55:12.781Z,-3.75
2019-01-25T08:56:12.796Z,-3.69
2019-01-25T08:57:12.761Z,-3.60
2019-01-25T08:58:12.777Z,-3.60
2019-01-25T08:59:12.735Z,-3.57
2019-01-25T09:00:12.732Z,-3.56
2019-01-25T09:01:12.720Z,-3.57
2019-01-25T09:02:12.714Z,-3.63
2019-01-25T09:03:12.700Z,-3.69
2019-01-25T09:04:12.689Z,-3.67
2019-01-25T09:05:12.717Z,-3.67
2019-01-25T09:06:12.668Z,-3.59
2019-01-25T09:07:12.657Z,-3.59
2019-01-25T09:08:12.651Z,-3.53
2019-01-25T09:09:12.634Z,-3.53
2019-01-25T09:10:12.627Z,-3.59
2019-01-25T09:11:12.616Z,-3.56
2019-01-25T09:12:12.605Z,-3.56
2019-01-25T09:13:12.592Z,-3.59
2019-01-25T09:14:12.584Z,-3.60
2019-01-25T09:15:12.577Z,-3.69
2019-01-25T09:16:12.570Z,-3.63
2019-01-25T09:17:12.550Z,-3.60
2019-01-25T09:18:12.545Z,-3.66
2019-01-25T09:19:12.531Z,-3.69
2019-01-25T09:20:14.518Z,-3.59
2019-01-25T09:21:12.513Z,-3.56
2019-01-25T09:22:12.498Z,-3.42
2019-01-25T09:23:12.486Z,-3.36
2019-01-25T09:24:12.474Z,-3.27
2019-01-25T09:25:12.466Z,-3.33
2019-01-25T09:26:12.456Z,-3.23
2019-01-25T09:27:12.447Z,-2.96
2019-01-25T09:28:12.432Z,-2.91
2019-01-25T09:29:12.427Z,-2.56
2019-01-25T09:30:12.417Z,-2.24
2019-01-25T09:31:12.404Z,-1.73
2019-01-25T09:32:12.390Z,-1.12
2019-01-25T09:33:12.383Z,-0.43
2019-01-25T09:34:12.378Z,-0.08
2019-01-25T09:35:12.364Z,0.04
2019-01-25T09:36:12.353Z,0.21
2019-01-25T09:37:12.345Z,0.60
2019-01-25T09:38:12.328Z,1.05
2019-01-25T09:39:12.318Z,1.32
2019-01-25T09:40:12.310Z,1.34
2019-01-25T09:41:12.298Z,1.33
2019-01-25T09:42:12.287Z,1.23
2019-01-25T09:43:12.276Z,1.02
2019-01-25T09:44:12.265Z,0.94
2019-01-25T09:45:12.255Z,0.51
2019-01-25T09:46:12.249Z,-0.18
2019-01-25T09:47:12.233Z,-0.70
2019-01-25T09:48:12.232Z,-1.16
2019-01-25T09:49:12.214Z,-1.19
2019-01-25T09:50:12.204Z,-1.31
2019-01-25T09:51:12.190Z,-1.28
2019-01-25T09:52:12.180Z,-1.25
2019-01-25T09:53:12.175Z,-1.35
2019-01-25T09:54:12.163Z,-1.77
2019-01-25T09:55:12.150Z,-1.98
2019-01-25T09:56:12.141Z,-2.05
2019-01-25T09:57:12.129Z,-2.00
2019-01-25T09:58:12.123Z,-2.15
2019-01-25T09:59:12.117Z,-2.29
2019-01-25T10:00:12.097Z,-2.30
2019-01-25T10:01:12.090Z,-2.35
2019-01-25T10:02:12.078Z,-2.32
2019-01-25T10:03:12.070Z,-2.39
2019-01-25T10:04:12.058Z,-2.46
2019-01-25T10:05:12.046Z,-2.49
2019-01-25T10:06:12.036Z,-2.45
2019-01-25T10:07:12.025Z,-2.50
2019-01-25T10:08:12.017Z,-2.49
2019-01-25T10:09:12.005Z,-2.45
2019-01-25T10:10:11.990Z,-2.39
2019-01-25T10:11:11.983Z,-2.43
2019-01-25T10:12:11.972Z,-2.30
2019-01-25T10:13:11.958Z,-2.26
2019-01-25T10:14:11.953Z,-2.24
2019-01-25T10:15:11.936Z,-2.27
2019-01-25T10:16:11.930Z,-2.08
2019-01-25T10:17:11.918Z,-2.02
2019-01-25T10:18:11.910Z,-1.55
2019-01-25T10:19:11.898Z,-0.78
2019-01-25T10:20:11.893Z,-0.23
2019-01-25T10:21:11.883Z,-0.62
2019-01-25T10:22:11.866Z,-0.78
2019-01-25T10:23:11.856Z,-0.72
2019-01-25T10:24:11.848Z,-0.73
2019-01-25T10:25:11.834Z,-1.09
2019-01-25T10:26:11.828Z,-1.43
2019-01-25T10:27:11.818Z,-1.69
2019-01-25T10:28:11.832Z,-1.73
2019-01-25T10:29:11.795Z,-1.73
2019-01-25T10:30:11.788Z,-1.56
2019-01-25T10:31:11.771Z,-1.54
2019-01-25T10:32:11.764Z,-1.45
2019-01-25T10:33:11.753Z,-1.37
2019-01-25T10:34:11.746Z,-1.33
2019-01-25T10:35:11.731Z,-0.73
2019-01-25T10:36:11.719Z,-0.22
2019-01-25T10:37:11.708Z,0.21
2019-01-25T10:38:11.739Z,0.14
2019-01-25T10:39:11.687Z,0.41
2019-01-25T10:40:11.677Z,0.73
2019-01-25T10:41:11.672Z,1.45
2019-01-25T10:42:11.658Z,1.87
2019-01-25T10:43:11.644Z,2.20
2019-01-25T10:44:11.642Z,1.66
2019-01-25T10:45:11.622Z,1.55
2019-01-25T10:46:11.615Z,0.79
2019-01-25T10:47:11.603Z,0.23
2019-01-25T10:48:11.592Z,-0.15
2019-01-25T10:49:11.583Z,-0.36
2019-01-25T10:50:11.570Z,-0.57
2019-01-25T10:51:11.565Z,-0.69
2019-01-25T10:52:11.556Z,-0.79
2019-01-25T10:53:11.543Z,-1.07
2019-01-25T10:54:11.527Z,-1.33
2019-01-25T10:55:11.519Z,-1.45
2019-01-25T10:56:11.521Z,-1.45
2019-01-25T10:57:11.493Z,-1.64
2019-01-25T10:58:11.496Z,-2.05
2019-01-25T10:59:11.481Z,-2.05
2019-01-25T11:00:11.470Z,-2.09
2019-01-25T11:01:11.453Z,-2.15
2019-01-25T11:02:11.442Z,-2.08
2019-01-25T11:03:11.431Z,-2.02
2019-01-25T11:04:11.823Z,-1.88
2019-01-25T11:05:11.411Z,-2.05
2019-01-25T11:06:11.402Z,-1.97
2019-01-25T11:07:11.397Z,-2.02
2019-01-25T11:08:11.379Z,-1.97
2019-01-25T11:09:11.377Z,-2.06
2019-01-25T11:10:11.362Z,-1.95
2019-01-25T11:11:11.348Z,-1.79
2019-01-25T11:12:11.337Z,-1.73
2019-01-25T11:13:11.332Z,-1.77
2019-01-25T11:14:11.316Z,-1.91
2019-01-25T11:15:11.305Z,-2.06
2019-01-25T11:16:12.048Z,-2.06
2019-01-25T11:17:11.311Z,-2.06
2019-01-25T11:18:11.344Z,-2.05
2019-01-25T11:19:11.301Z,-2.06
2019-01-25T11:20:11.290Z,-2.10
2019-01-25T11:21:11.337Z,-1.98
2019-01-25T11:22:11.232Z,-2.08
2019-01-25T11:23:11.224Z,-2.02
2019-01-25T11:24:11.221Z,-2.00
2019-01-25T11:25:11.204Z,-2.00
2019-01-25T11:26:11.192Z,-2.10
2019-01-25T11:27:11.190Z,-2.16
2019-01-25T11:28:11.187Z,-2.06
2019-01-25T11:29:11.241Z,-2.12
2019-01-25T11:30:11.209Z,-2.24
2019-01-25T11:31:11.138Z,-2.10
2019-01-25T11:32:11.129Z,-2.24
2019-01-25T11:33:11.119Z,-2.32
2019-01-25T11:34:11.108Z,-2.24
2019-01-25T11:35:11.095Z,-2.29
2019-01-25T11:36:11.084Z,-2.24
2019-01-25T11:37:11.077Z,-2.27
2019-01-25T11:38:11.062Z,-2.35
2019-01-25T11:39:11.055Z,-2.42
2019-01-25T11:40:11.048Z,-2.39
2019-01-25T11:41:11.039Z,-2.39
2019-01-25T11:42:11.033Z,-2.45
2019-01-25T11:43:11.011Z,-2.53
2019-01-25T11:44:11.000Z,-2.46
2019-01-25T11:45:10.991Z,-2.48
2019-01-25T11:46:10.982Z,-2.46
2019-01-25T11:47:10.975Z,-2.35
2019-01-25T11:48:10.962Z,-2.27
2019-01-25T11:49:10.951Z,-2.26
2019-01-25T11:50:10.938Z,-2.32
2019-01-25T11:51:10.933Z,-2.24
2019-01-25T11:52:10.918Z,-2.27
2019-01-25T11:53:10.947Z,-2.23
2019-01-25T11:54:10.896Z,-2.12
2019-01-25T11:55:10.887Z,-2.15
2019-01-25T11:56:10.874Z,-2.03
2019-01-25T11:57:10.864Z,-1.97
2019-01-25T11:58:10.859Z,-2.02
2019-01-25T11:59:10.852Z,-1.91
2019-01-25T12:00:10.845Z,-1.90
2019-01-25T12:01:10.837Z,-1.76
2019-01-25T12:02:10.812Z,-1.76
2019-01-25T12:03:10.806Z,-1.61
2019-01-25T12:04:10.799Z,-1.54
2019-01-25T12:05:10.786Z,-1.46
2019-01-25T12:06:10.790Z,-1.45
2019-01-25T12:07:10.773Z,-1.38
2019-01-25T12:08:10.788Z,-1.19
2019-01-25T12:09:10.750Z,-0.99
2019-01-25T12:10:10.767Z,-0.73
2019-01-25T12:11:10.722Z,-0.49
2019-01-25T12:12:10.715Z,-0.23
2019-01-25T12:13:16.057Z,0.10
2019-01-25T12:14:11.690Z,0.49
2019-01-25T12:15:10.696Z,0.47
2019-01-25T12:16:10.693Z,0.62
2019-01-25T12:17:10.658Z,0.86
2019-01-25T12:18:10.645Z,0.94
2019-01-25T12:19:10.648Z,0.91
2019-01-25T12:20:10.626Z,0.76
2019-01-25T12:21:10.613Z,0.39
2019-01-25T12:22:10.628Z,-0.01
2019-01-25T12:23:12.025Z,0.02
2019-01-25T12:24:10.583Z,-0.05
2019-01-25T12:25:10.580Z,-0.03
2019-01-25T12:26:10.564Z,0.02
2019-01-25T12:27:10.559Z,-0.04
2019-01-25T12:28:10.544Z,-0.07
2019-01-25T12:29:10.528Z,-0.07
2019-01-25T12:30:10.521Z,-0.39
2019-01-25T12:31:10.503Z,-0.62
2019-01-25T12:32:10.497Z,-0.67
2019-01-25T12:33:10.480Z,-0.65
2019-01-25T12:34:10.473Z,-0.89
2019-01-25T12:35:10.459Z,-1.02
2019-01-25T12:36:10.450Z,-1.09
2019-01-25T12:37:10.442Z,-1.10
2019-01-25T12:38:10.431Z,-1.12
2019-01-25T12:39:10.417Z,-1.17
2019-01-25T12:40:10.407Z,-1.31
2019-01-25T12:41:10.398Z,-1.28
2019-01-25T12:42:10.385Z,-1.25
2019-01-25T12:43:10.376Z,-1.49
2019-01-25T12:44:10.365Z,-1.64
2019-01-25T12:45:10.355Z,-1.58
2019-01-25T12:46:10.344Z,-1.51
2019-01-25T12:47:10.332Z,-1.56
2019-01-25T12:48:10.324Z,-1.58
2019-01-25T12:49:10.312Z,-1.73
2019-01-25T12:50:10.305Z,-1.67
2019-01-25T12:51:10.295Z,-1.72
2019-01-25T12:52:10.282Z,-1.67
2019-01-25T12:53:10.271Z,-1.76